sensor_id;sensor_type;location;lat;lon;timestamp;pressure;altitude;pressure_sealevel;temperature;humidity
70684;BME280;58263;48.146;11.440;2023-02-23T00:00:26;95314.19;;;7.84;66.93
70684;BME280;58263;48.146;11.440;2023-02-23T00:02:56;95306.63;;;7.81;67.35
70684;BME280;58263;48.146;11.440;2023-02-23T00:05:25;95309.69;;;7.84;67.45
70684;BME280;58263;48.146;11.440;2023-02-23T00:07:51;95315.38;;;7.88;67.44
70684;BME280;58263;48.146;11.440;2023-02-23T00:10:18;95303.50;;;7.84;67.67
70684;BME280;58263;48.146;11.440;2023-02-23T00:12:45;95300.97;;;7.89;67.54
70684;BME280;58263;48.146;11.440;2023-02-23T00:15:11;95312.56;;;7.83;68.34
70684;BME280;58263;48.146;11.440;2023-02-23T00:17:37;95308.50;;;7.80;68.35
70684;BME280;58263;48.146;11.440;2023-02-23T00:20:07;95305.81;;;7.80;68.62
70684;BME280;58263;48.146;11.440;2023-02-23T00:22:39;95307.66;;;7.79;68.80
70684;BME280;58263;48.146;11.440;2023-02-23T00:25:08;95309.28;;;7.81;68.76
70684;BME280;58263;48.146;11.440;2023-02-23T00:27:37;95313.38;;;7.83;68.74
70684;BME280;58263;48.146;11.440;2023-02-23T00:30:12;95309.59;;;7.91;68.23
70684;BME280;58263;48.146;11.440;2023-02-23T00:32:37;95313.75;;;7.87;68.43
70684;BME280;58263;48.146;11.440;2023-02-23T00:35:03;95315.75;;;7.91;68.47
70684;BME280;58263;48.146;11.440;2023-02-23T00:37:28;95314.63;;;7.81;68.79
70684;BME280;58263;48.146;11.440;2023-02-23T00:39:54;95315.59;;;7.86;68.85
70684;BME280;58263;48.146;11.440;2023-02-23T00:42:21;95310.47;;;7.85;69.16
70684;BME280;58263;48.146;11.440;2023-02-23T00:44:46;95313.69;;;7.93;68.43
70684;BME280;58263;48.146;11.440;2023-02-23T00:47:13;95307.97;;;7.90;69.05
70684;BME280;58263;48.146;11.440;2023-02-23T00:49:38;95309.59;;;7.91;68.80
70684;BME280;58263;48.146;11.440;2023-02-23T00:52:04;95309.53;;;7.98;68.67
70684;BME280;58263;48.146;11.440;2023-02-23T00:54:29;95309.94;;;7.94;69.04
70684;BME280;58263;48.146;11.440;2023-02-23T00:56:54;95311.13;;;7.99;68.65
70684;BME280;58263;48.146;11.440;2023-02-23T00:59:20;95312.84;;;7.93;69.11
70684;BME280;58263;48.146;11.440;2023-02-23T01:01:46;95315.22;;;8.01;68.67
70684;BME280;58263;48.146;11.440;2023-02-23T01:04:12;95320.56;;;8.01;68.84
70684;BME280;58263;48.146;11.440;2023-02-23T01:06:39;95318.47;;;8.03;68.73
70684;BME280;58263;48.146;11.440;2023-02-23T01:09:07;95324.41;;;8.05;68.55
70684;BME280;58263;48.146;11.440;2023-02-23T01:11:33;95316.38;;;8.05;68.70
70684;BME280;58263;48.146;11.440;2023-02-23T01:14:00;95314.31;;;8.07;68.57
70684;BME280;58263;48.146;11.440;2023-02-23T01:16:29;95312.75;;;8.00;69.38
70684;BME280;58263;48.146;11.440;2023-02-23T01:18:57;95314.47;;;7.94;69.46
70684;BME280;58263;48.146;11.440;2023-02-23T01:21:25;95316.94;;;7.95;69.42
70684;BME280;58263;48.146;11.440;2023-02-23T01:23:51;95311.97;;;7.99;69.19
70684;BME280;58263;48.146;11.440;2023-02-23T01:26:22;95309.06;;;8.01;69.26
70684;BME280;58263;48.146;11.440;2023-02-23T01:28:56;95314.75;;;8.04;69.35
70684;BME280;58263;48.146;11.440;2023-02-23T01:31:23;95311.50;;;8.02;69.33
70684;BME280;58263;48.146;11.440;2023-02-23T01:33:53;95314.75;;;8.04;69.34
70684;BME280;58263;48.146;11.440;2023-02-23T01:36:19;95318.91;;;8.00;69.67
70684;BME280;58263;48.146;11.440;2023-02-23T01:38:44;95314.41;;;8.01;69.53
70684;BME280;58263;48.146;11.440;2023-02-23T01:41:10;95322.44;;;8.12;68.94
70684;BME280;58263;48.146;11.440;2023-02-23T01:46:21;95322.44;;;8.12;69.03
70684;BME280;58263;48.146;11.440;2023-02-23T01:48:46;95320.84;;;8.11;69.34
70684;BME280;58263;48.146;11.440;2023-02-23T01:51:16;95318.47;;;8.03;69.44
70684;BME280;58263;48.146;11.440;2023-02-23T01:53:47;95321.72;;;8.05;69.71
70684;BME280;58263;48.146;11.440;2023-02-23T01:56:20;95315.94;;;8.08;69.32
70684;BME280;58263;48.146;11.440;2023-02-23T01:58:50;95319.75;;;8.01;69.83
70684;BME280;58263;48.146;11.440;2023-02-23T02:01:17;95318.59;;;8.08;69.23
70684;BME280;58263;48.146;11.440;2023-02-23T02:04:02;95317.66;;;8.03;69.90
70684;BME280;58263;48.146;11.440;2023-02-23T02:06:31;95317.66;;;8.03;69.55
70684;BME280;58263;48.146;11.440;2023-02-23T02:09:06;95314.09;;;8.09;69.14
70684;BME280;58263;48.146;11.440;2023-02-23T02:11:33;95315.94;;;8.08;69.33
70684;BME280;58263;48.146;11.440;2023-02-23T02:14:09;95298.06;;;8.09;69.42
70684;BME280;58263;48.146;11.440;2023-02-23T02:22:53;95295.63;;;8.07;69.25
70684;BME280;58263;48.146;11.440;2023-02-23T02:25:34;95285.69;;;7.96;69.58
70684;BME280;58263;48.146;11.440;2023-02-23T02:36:52;95286.13;;;7.93;69.87
70684;BME280;58263;48.146;11.440;2023-02-23T02:39:28;95279.78;;;7.94;69.50
70684;BME280;58263;48.146;11.440;2023-02-23T02:47:52;95284.69;;;7.78;70.09
70684;BME280;58263;48.146;11.440;2023-02-23T02:50:25;95282.81;;;7.79;70.03
70684;BME280;58263;48.146;11.440;2023-02-23T02:53:04;95282.16;;;7.84;69.73
70684;BME280;58263;48.146;11.440;2023-02-23T02:55:31;95280.72;;;7.81;69.58
70684;BME280;58263;48.146;11.440;2023-02-23T02:58:00;95279.94;;;7.81;69.69
70684;BME280;58263;48.146;11.440;2023-02-23T03:00:37;95282.75;;;7.67;70.18
70684;BME280;58263;48.146;11.440;2023-02-23T03:03:44;95287.53;;;7.65;70.51
70684;BME280;58263;48.146;11.440;2023-02-23T03:06:44;95286.56;;;7.59;70.56
70684;BME280;58263;48.146;11.440;2023-02-23T03:09:36;95292.47;;;7.61;70.72
70684;BME280;58263;48.146;11.440;2023-02-23T03:15:38;95281.72;;;7.68;70.76
70684;BME280;58263;48.146;11.440;2023-02-23T03:18:50;95285.81;;;7.71;70.83
70684;BME280;58263;48.146;11.440;2023-02-23T03:21:50;95276.53;;;7.73;70.61
70684;BME280;58263;48.146;11.440;2023-02-23T03:28:12;95280.09;;;7.67;70.73
70684;BME280;58263;48.146;11.440;2023-02-23T03:31:26;95289.56;;;7.63;70.76
70684;BME280;58263;48.146;11.440;2023-02-23T03:34:21;95280.53;;;7.64;70.84
70684;BME280;58263;48.146;11.440;2023-02-23T03:37:14;95284.09;;;7.58;71.10
70684;BME280;58263;48.146;11.440;2023-02-23T03:40:28;95278.63;;;7.53;71.03
70684;BME280;58263;48.146;11.440;2023-02-23T03:43:19;95284.59;;;7.48;71.05
70684;BME280;58263;48.146;11.440;2023-02-23T03:46:08;95282.84;;;7.42;71.26
70684;BME280;58263;48.146;11.440;2023-02-23T03:48:56;95283.50;;;7.37;71.20
70684;BME280;58263;48.146;11.440;2023-02-23T03:51:46;95286.63;;;7.34;71.71
70684;BME280;58263;48.146;11.440;2023-02-23T03:54:36;95289.72;;;7.31;71.53
70684;BME280;58263;48.146;11.440;2023-02-23T03:57:24;95293.44;;;7.30;71.48
70684;BME280;58263;48.146;11.440;2023-02-23T04:00:14;95300.41;;;7.31;71.69
70684;BME280;58263;48.146;11.440;2023-02-23T04:03:01;95301.34;;;7.18;71.50
70684;BME280;58263;48.146;11.440;2023-02-23T04:05:49;95297.53;;;7.07;71.68
70684;BME280;58263;48.146;11.440;2023-02-23T04:08:36;95311.25;;;7.11;71.89
70684;BME280;58263;48.146;11.440;2023-02-23T04:11:27;95303.16;;;6.99;71.74
70684;BME280;58263;48.146;11.440;2023-02-23T04:14:25;95301.09;;;7.01;71.58
70684;BME280;58263;48.146;11.440;2023-02-23T04:16:53;95295.59;;;6.96;71.87
70684;BME280;58263;48.146;11.440;2023-02-23T04:19:19;95303.66;;;6.89;72.35
70684;BME280;58263;48.146;11.440;2023-02-23T04:21:44;95304.91;;;6.87;72.86
70684;BME280;58263;48.146;11.440;2023-02-23T04:24:09;95295.34;;;6.79;72.71
70684;BME280;58263;48.146;11.440;2023-02-23T04:26:35;95295.75;;;6.76;72.44
70684;BME280;58263;48.146;11.440;2023-02-23T04:29:00;95301.34;;;6.68;73.00
70684;BME280;58263;48.146;11.440;2023-02-23T04:31:25;95292.81;;;6.59;72.30
70684;BME280;58263;48.146;11.440;2023-02-23T04:33:51;95297.31;;;6.58;72.42
70684;BME280;58263;48.146;11.440;2023-02-23T04:36:16;95282.16;;;6.59;72.91
70684;BME280;58263;48.146;11.440;2023-02-23T04:38:42;95285.47;;;6.54;73.05
70684;BME280;58263;48.146;11.440;2023-02-23T04:41:08;95295.97;;;6.49;73.20
70684;BME280;58263;48.146;11.440;2023-02-23T04:43:33;95291.06;;;6.46;72.83
70684;BME280;58263;48.146;11.440;2023-02-23T04:45:58;95289.06;;;6.41;73.16
70684;BME280;58263;48.146;11.440;2023-02-23T04:48:24;95299.16;;;6.33;73.55
70684;BME280;58263;48.146;11.440;2023-02-23T04:50:54;95295.00;;;6.43;73.23
70684;BME280;58263;48.146;11.440;2023-02-23T04:53:20;95302.81;;;6.38;73.29
70684;BME280;58263;48.146;11.440;2023-02-23T04:55:45;95307.69;;;6.41;73.32
70684;BME280;58263;48.146;11.440;2023-02-23T04:58:10;95312.25;;;6.34;73.35
70684;BME280;58263;48.146;11.440;2023-02-23T05:00:38;95300.81;;;6.27;72.97
70684;BME280;58263;48.146;11.440;2023-02-23T05:03:04;95304.13;;;6.22;73.09
70684;BME280;58263;48.146;11.440;2023-02-23T05:05:29;95302.75;;;6.13;73.76
70684;BME280;58263;48.146;11.440;2023-02-23T05:07:54;95308.91;;;6.14;73.83
70684;BME280;58263;48.146;11.440;2023-02-23T05:10:20;95311.97;;;6.11;73.87
70684;BME280;58263;48.146;11.440;2023-02-23T05:12:45;95309.91;;;6.13;73.72
70684;BME280;58263;48.146;11.440;2023-02-23T05:15:11;95314.81;;;6.16;73.91
70684;BME280;58263;48.146;11.440;2023-02-23T05:17:38;95310.09;;;6.18;73.92
70684;BME280;58263;48.146;11.440;2023-02-23T05:20:05;95309.06;;;6.19;73.95
70684;BME280;58263;48.146;11.440;2023-02-23T05:22:31;95313.38;;;6.13;74.11
70684;BME280;58263;48.146;11.440;2023-02-23T05:24:56;95313.59;;;6.12;74.76
70684;BME280;58263;48.146;11.440;2023-02-23T05:27:21;95311.97;;;6.11;74.30
70684;BME280;58263;48.146;11.440;2023-02-23T05:29:47;95314.03;;;6.08;74.63
70684;BME280;58263;48.146;11.440;2023-02-23T05:32:12;95312.38;;;6.14;74.39
70684;BME280;58263;48.146;11.440;2023-02-23T05:34:37;95313.59;;;6.12;74.48
70684;BME280;58263;48.146;11.440;2023-02-23T05:37:03;95323.19;;;6.19;74.72
70684;BME280;58263;48.146;11.440;2023-02-23T05:39:29;95322.13;;;6.27;74.79
70684;BME280;58263;48.146;11.440;2023-02-23T05:41:55;95325.84;;;6.26;75.05
70684;BME280;58263;48.146;11.440;2023-02-23T05:44:20;95328.25;;;6.34;74.89
70684;BME280;58263;48.146;11.440;2023-02-23T05:46:45;95322.69;;;6.36;75.02
70684;BME280;58263;48.146;11.440;2023-02-23T05:49:13;95315.09;;;6.39;74.79
70684;BME280;58263;48.146;11.440;2023-02-23T05:51:39;95320.44;;;6.39;74.65
70684;BME280;58263;48.146;11.440;2023-02-23T05:54:04;95326.56;;;6.40;75.00
70684;BME280;58263;48.146;11.440;2023-02-23T05:56:30;95317.94;;;6.38;74.76
70684;BME280;58263;48.146;11.440;2023-02-23T05:58:57;95323.25;;;6.45;74.84
70684;BME280;58263;48.146;11.440;2023-02-23T06:01:23;95328.97;;;6.48;74.51
70684;BME280;58263;48.146;11.440;2023-02-23T06:03:49;95324.84;;;6.52;74.13
70684;BME280;58263;48.146;11.440;2023-02-23T06:06:15;95324.03;;;6.52;74.51
70684;BME280;58263;48.146;11.440;2023-02-23T06:08:41;95332.03;;;6.52;74.67
70684;BME280;58263;48.146;11.440;2023-02-23T06:11:07;95332.03;;;6.52;74.59
70684;BME280;58263;48.146;11.440;2023-02-23T06:13:32;95324.03;;;6.52;74.40
70684;BME280;58263;48.146;11.440;2023-02-23T06:15:58;95326.44;;;6.60;74.19
70684;BME280;58263;48.146;11.440;2023-02-23T06:18:27;95337.41;;;6.70;74.01
70684;BME280;58263;48.146;11.440;2023-02-23T06:20:53;95324.75;;;6.66;74.12
70684;BME280;58263;48.146;11.440;2023-02-23T06:23:18;95341.38;;;6.61;74.62
70684;BME280;58263;48.146;11.440;2023-02-23T06:25:45;95334.00;;;6.63;74.56
70684;BME280;58263;48.146;11.440;2023-02-23T06:28:11;95342.94;;;6.75;73.87
70684;BME280;58263;48.146;11.440;2023-02-23T06:30:37;95342.94;;;6.75;73.95
70684;BME280;58263;48.146;11.440;2023-02-23T06:33:04;95353.41;;;6.70;74.27
70684;BME280;58263;48.146;11.440;2023-02-23T06:35:30;95351.19;;;6.67;74.31
70684;BME280;58263;48.146;11.440;2023-02-23T06:37:56;95348.69;;;6.72;74.10
70684;BME280;58263;48.146;11.440;2023-02-23T06:40:22;95361.19;;;6.72;74.38
70684;BME280;58263;48.146;11.440;2023-02-23T06:42:47;95351.94;;;6.74;74.28
70684;BME280;58263;48.146;11.440;2023-02-23T06:45:12;95363.22;;;6.76;74.27
70684;BME280;58263;48.146;11.440;2023-02-23T06:47:38;95354.97;;;6.85;73.80
70684;BME280;58263;48.146;11.440;2023-02-23T06:50:05;95355.41;;;6.82;74.16
70684;BME280;58263;48.146;11.440;2023-02-23T06:52:31;95358.06;;;6.82;74.06
70684;BME280;58263;48.146;11.440;2023-02-23T06:54:56;95364.16;;;6.89;73.97
70684;BME280;58263;48.146;11.440;2023-02-23T06:57:21;95360.25;;;6.91;73.84
70684;BME280;58263;48.146;11.440;2023-02-23T06:59:47;95362.25;;;6.96;73.59
70684;BME280;58263;48.146;11.440;2023-02-23T07:02:12;95363.19;;;7.08;73.30
70684;BME280;58263;48.146;11.440;2023-02-23T07:04:38;95361.97;;;7.04;73.56
70684;BME280;58263;48.146;11.440;2023-02-23T07:07:04;95363.78;;;7.10;73.63
70684;BME280;58263;48.146;11.440;2023-02-23T07:09:29;95365.34;;;7.18;72.90
70684;BME280;58263;48.146;11.440;2023-02-23T07:11:55;95377.00;;;7.24;73.27
70684;BME280;58263;48.146;11.440;2023-02-23T07:14:20;95369.00;;;7.24;73.55
70684;BME280;58263;48.146;11.440;2023-02-23T07:16:46;95370.03;;;7.23;73.36
70684;BME280;58263;48.146;11.440;2023-02-23T07:19:12;95364.09;;;7.21;73.64
70684;BME280;58263;48.146;11.440;2023-02-23T07:21:37;95378.78;;;7.30;73.25
70684;BME280;58263;48.146;11.440;2023-02-23T07:24:03;95369.75;;;7.31;73.35
70684;BME280;58263;48.146;11.440;2023-02-23T07:26:30;95374.22;;;7.37;73.11
70684;BME280;58263;48.146;11.440;2023-02-23T07:28:57;95370.28;;;7.40;73.46
70684;BME280;58263;48.146;11.440;2023-02-23T07:31:23;95363.13;;;7.40;73.59
70684;BME280;58263;48.146;11.440;2023-02-23T07:33:48;95366.91;;;7.51;73.59
70684;BME280;58263;48.146;11.440;2023-02-23T07:36:13;95368.00;;;7.62;72.94
70684;BME280;58263;48.146;11.440;2023-02-23T07:38:38;95368.94;;;7.74;72.40
70684;BME280;58263;48.146;11.440;2023-02-23T07:41:04;95362.13;;;7.78;72.69
70684;BME280;58263;48.146;11.440;2023-02-23T07:43:30;95373.09;;;7.89;73.10
70684;BME280;58263;48.146;11.440;2023-02-23T07:45:58;95375.00;;;8.00;72.23
70684;BME280;58263;48.146;11.440;2023-02-23T07:48:24;95371.53;;;8.00;72.52
70684;BME280;58263;48.146;11.440;2023-02-23T07:50:50;95374.56;;;8.03;72.44
70684;BME280;58263;48.146;11.440;2023-02-23T07:53:15;95372.78;;;8.16;72.45
70684;BME280;58263;48.146;11.440;2023-02-23T07:55:40;95379.47;;;8.25;72.04
70684;BME280;58263;48.146;11.440;2023-02-23T07:58:06;95379.00;;;8.28;72.33
70684;BME280;58263;48.146;11.440;2023-02-23T08:00:33;95375.63;;;8.33;72.21
70684;BME280;58263;48.146;11.440;2023-02-23T08:02:58;95382.09;;;8.43;72.23
70684;BME280;58263;48.146;11.440;2023-02-23T08:05:25;95384.84;;;8.55;71.70
70684;BME280;58263;48.146;11.440;2023-02-23T08:07:52;95382.31;;;8.60;71.83
70684;BME280;58263;48.146;11.440;2023-02-23T08:10:18;95384.28;;;8.65;71.59
70684;BME280;58263;48.146;11.440;2023-02-23T08:12:43;95386.06;;;8.71;71.44
70684;BME280;58263;48.146;11.440;2023-02-23T08:15:09;95387.44;;;8.74;72.31
70684;BME280;58263;48.146;11.440;2023-02-23T08:17:35;95391.75;;;8.75;72.16
70684;BME280;58263;48.146;11.440;2023-02-23T08:20:01;95386.34;;;8.93;71.55
70684;BME280;58263;48.146;11.440;2023-02-23T08:22:27;95394.72;;;8.97;71.54
70684;BME280;58263;48.146;11.440;2023-02-23T08:24:52;95383.59;;;9.12;71.27
70684;BME280;58263;48.146;11.440;2023-02-23T08:27:18;95381.53;;;9.26;70.97
70684;BME280;58263;48.146;11.440;2023-02-23T08:29:44;95385.81;;;9.27;70.60
70684;BME280;58263;48.146;11.440;2023-02-23T08:32:09;95379.44;;;9.40;70.32
70684;BME280;58263;48.146;11.440;2023-02-23T08:34:40;95385.84;;;9.51;70.18
70684;BME280;58263;48.146;11.440;2023-02-23T08:37:06;95389.00;;;9.59;70.31
70684;BME280;58263;48.146;11.440;2023-02-23T08:39:31;95380.72;;;9.61;70.22
70684;BME280;58263;48.146;11.440;2023-02-23T08:41:56;95384.91;;;9.69;70.20
70684;BME280;58263;48.146;11.440;2023-02-23T08:44:22;95387.47;;;9.75;69.61
70684;BME280;58263;48.146;11.440;2023-02-23T08:46:47;95386.69;;;9.75;69.92
70684;BME280;58263;48.146;11.440;2023-02-23T08:49:13;95385.38;;;9.77;69.65
70684;BME280;58263;48.146;11.440;2023-02-23T08:51:38;95375.94;;;9.87;69.86
70684;BME280;58263;48.146;11.440;2023-02-23T08:54:05;95383.97;;;9.87;69.62
70684;BME280;58263;48.146;11.440;2023-02-23T08:56:36;95388.41;;;9.81;69.85
70684;BME280;58263;48.146;11.440;2023-02-23T08:59:01;95385.59;;;9.76;70.45
70684;BME280;58263;48.146;11.440;2023-02-23T09:01:27;95373.38;;;9.92;69.68
70684;BME280;58263;48.146;11.440;2023-02-23T09:03:52;95379.75;;;10.03;69.30
70684;BME280;58263;48.146;11.440;2023-02-23T09:06:19;95376.59;;;10.18;68.80
70684;BME280;58263;48.146;11.440;2023-02-23T09:08:45;95376.66;;;10.35;68.15
70684;BME280;58263;48.146;11.440;2023-02-23T09:11:10;95378.06;;;10.37;68.25
70684;BME280;58263;48.146;11.440;2023-02-23T09:13:35;95378.38;;;10.53;67.62
70684;BME280;58263;48.146;11.440;2023-02-23T09:16:01;95377.16;;;10.60;67.75
70684;BME280;58263;48.146;11.440;2023-02-23T09:18:28;95380.00;;;10.54;67.77
70684;BME280;58263;48.146;11.440;2023-02-23T09:20:55;95382.97;;;10.69;67.30
70684;BME280;58263;48.146;11.440;2023-02-23T09:23:20;95384.59;;;10.70;67.08
70684;BME280;58263;48.146;11.440;2023-02-23T09:25:46;95381.81;;;10.94;66.57
70684;BME280;58263;48.146;11.440;2023-02-23T09:28:17;95380.50;;;10.96;66.57
70684;BME280;58263;48.146;11.440;2023-02-23T09:30:43;95383.09;;;11.08;66.41
70684;BME280;58263;48.146;11.440;2023-02-23T09:33:10;95379.38;;;10.92;66.46
70684;BME280;58263;48.146;11.440;2023-02-23T09:35:35;95379.16;;;11.28;66.05
70684;BME280;58263;48.146;11.440;2023-02-23T09:38:02;95374.19;;;11.54;65.06
70684;BME280;58263;48.146;11.440;2023-02-23T09:40:54;95377.59;;;11.66;64.77
70684;BME280;58263;48.146;11.440;2023-02-23T09:43:28;95385.94;;;11.70;64.31
70684;BME280;58263;48.146;11.440;2023-02-23T09:46:07;95380.22;;;11.83;63.87
70684;BME280;58263;48.146;11.440;2023-02-23T09:48:36;95376.47;;;12.01;63.27
70684;BME280;58263;48.146;11.440;2023-02-23T09:51:05;95391.25;;;11.98;63.14
70684;BME280;58263;48.146;11.440;2023-02-23T09:53:44;95392.38;;;12.03;63.16
70684;BME280;58263;48.146;11.440;2023-02-23T09:58:47;95390.06;;;12.11;62.30
70684;BME280;58263;48.146;11.440;2023-02-23T10:01:27;95391.44;;;12.14;62.88
70684;BME280;58263;48.146;11.440;2023-02-23T10:04:46;95398.63;;;12.08;62.79
70684;BME280;58263;48.146;11.440;2023-02-23T10:07:08;95390.75;;;12.24;61.82
70684;BME280;58263;48.146;11.440;2023-02-23T10:15:43;95389.66;;;12.69;60.93
70684;BME280;58263;48.146;11.440;2023-02-23T10:18:36;95385.31;;;12.63;60.87
70684;BME280;58263;48.146;11.440;2023-02-23T10:21:15;95395.72;;;12.81;59.93
70684;BME280;58263;48.146;11.440;2023-02-23T10:23:50;95399.66;;;12.96;59.52
70684;BME280;58263;48.146;11.440;2023-02-23T10:26:23;95396.81;;;12.80;60.07
70684;BME280;58263;48.146;11.440;2023-02-23T10:28:51;95391.63;;;12.74;59.99
70684;BME280;58263;48.146;11.440;2023-02-23T10:33:54;95391.50;;;12.91;59.72
70684;BME280;58263;48.146;11.440;2023-02-23T10:36:35;95387.22;;;12.67;60.03
70684;BME280;58263;48.146;11.440;2023-02-23T10:39:04;95396.28;;;12.83;59.77
70684;BME280;58263;48.146;11.440;2023-02-23T10:41:30;95394.56;;;12.72;59.84
70684;BME280;58263;48.146;11.440;2023-02-23T10:43:56;95392.41;;;12.74;59.95
70684;BME280;58263;48.146;11.440;2023-02-23T10:46:24;95394.66;;;12.82;59.59
70684;BME280;58263;48.146;11.440;2023-02-23T10:48:54;95389.88;;;12.90;59.58
70684;BME280;58263;48.146;11.440;2023-02-23T10:51:25;95389.97;;;12.73;59.59
70684;BME280;58263;48.146;11.440;2023-02-23T10:53:53;95389.38;;;12.93;59.14
70684;BME280;58263;48.146;11.440;2023-02-23T10:56:20;95389.28;;;12.82;59.33
70684;BME280;58263;48.146;11.440;2023-02-23T10:58:55;95388.28;;;12.66;60.18
70684;BME280;58263;48.146;11.440;2023-02-23T11:06:38;95388.41;;;13.04;59.36
70684;BME280;58263;48.146;11.440;2023-02-23T11:12:00;95390.50;;;12.97;60.17
70684;BME280;58263;48.146;11.440;2023-02-23T11:14:29;95384.16;;;13.08;59.28
70684;BME280;58263;48.146;11.440;2023-02-23T11:16:56;95382.34;;;13.19;58.93
70684;BME280;58263;48.146;11.440;2023-02-23T11:19:32;95376.75;;;13.26;58.46
70684;BME280;58263;48.146;11.440;2023-02-23T11:21:59;95375.41;;;13.56;58.45
70684;BME280;58263;48.146;11.440;2023-02-23T11:24:32;95373.97;;;13.80;57.46
70684;BME280;58263;48.146;11.440;2023-02-23T11:27:04;95371.75;;;14.99;54.61
70684;BME280;58263;48.146;11.440;2023-02-23T11:29:37;95365.28;;;14.95;54.41
70684;BME280;58263;48.146;11.440;2023-02-23T11:32:09;95361.34;;;14.49;55.15
70684;BME280;58263;48.146;11.440;2023-02-23T11:34:38;95358.81;;;14.27;55.26
70684;BME280;58263;48.146;11.440;2023-02-23T11:37:20;95362.16;;;13.86;56.76
70684;BME280;58263;48.146;11.440;2023-02-23T11:42:20;95362.56;;;13.68;57.00
70684;BME280;58263;48.146;11.440;2023-02-23T11:45:13;95353.19;;;13.76;56.95
70684;BME280;58263;48.146;11.440;2023-02-23T11:47:43;95344.38;;;13.96;56.33
70684;BME280;58263;48.146;11.440;2023-02-23T11:52:47;95337.81;;;14.34;55.59
70684;BME280;58263;48.146;11.440;2023-02-23T11:55:16;95338.84;;;14.23;54.65
70684;BME280;58263;48.146;11.440;2023-02-23T11:57:43;95333.38;;;14.66;54.05
70684;BME280;58263;48.146;11.440;2023-02-23T12:00:11;95330.94;;;14.75;52.91
70684;BME280;58263;48.146;11.440;2023-02-23T12:02:49;95333.41;;;14.92;52.61
70684;BME280;58263;48.146;11.440;2023-02-23T12:05:30;95329.06;;;15.01;52.26
70684;BME280;58263;48.146;11.440;2023-02-23T12:10:57;95318.69;;;14.46;53.96
70684;BME280;58263;48.146;11.440;2023-02-23T12:13:32;95317.16;;;14.76;53.49
70684;BME280;58263;48.146;11.440;2023-02-23T12:16:14;95324.41;;;14.60;54.22
70684;BME280;58263;48.146;11.440;2023-02-23T12:18:49;95318.25;;;14.80;53.62
70684;BME280;58263;48.146;11.440;2023-02-23T12:21:38;95321.53;;;14.87;53.84
70684;BME280;58263;48.146;11.440;2023-02-23T12:24:09;95313.44;;;14.87;53.29
70684;BME280;58263;48.146;11.440;2023-02-23T12:27:03;95312.59;;;14.77;53.51
70684;BME280;58263;48.146;11.440;2023-02-23T12:32:10;95307.91;;;14.41;54.38
70684;BME280;58263;48.146;11.440;2023-02-23T12:34:53;95307.56;;;14.22;54.59
70684;BME280;58263;48.146;11.440;2023-02-23T12:37:39;95302.44;;;14.26;55.51
70684;BME280;58263;48.146;11.440;2023-02-23T12:40:20;95302.66;;;14.09;55.81
70684;BME280;58263;48.146;11.440;2023-02-23T12:43:10;95308.41;;;14.33;55.64
70684;BME280;58263;48.146;11.440;2023-02-23T12:45:50;95307.84;;;14.31;54.53
70684;BME280;58263;48.146;11.440;2023-02-23T12:51:13;95307.25;;;14.13;55.75
70684;BME280;58263;48.146;11.440;2023-02-23T12:53:42;95313.94;;;14.06;55.63
70684;BME280;58263;48.146;11.440;2023-02-23T12:56:31;95299.84;;;13.83;56.80
70684;BME280;58263;48.146;11.440;2023-02-23T13:05:01;95294.53;;;14.03;56.68
70684;BME280;58263;48.146;11.440;2023-02-23T13:07:51;95292.88;;;13.97;56.38
70684;BME280;58263;48.146;11.440;2023-02-23T13:10:46;95292.38;;;14.06;55.59
70684;BME280;58263;48.146;11.440;2023-02-23T13:13:24;95289.44;;;14.07;54.71
70684;BME280;58263;48.146;11.440;2023-02-23T13:18:31;95285.38;;;14.05;55.58
70684;BME280;58263;48.146;11.440;2023-02-23T13:26:34;95288.72;;;14.37;54.69
70684;BME280;58263;48.146;11.440;2023-02-23T13:29:11;95290.28;;;14.18;53.19
70684;BME280;58263;48.146;11.440;2023-02-23T13:31:40;95287.94;;;14.47;53.09
70684;BME280;58263;48.146;11.440;2023-02-23T13:34:11;95283.94;;;14.65;52.31
70684;BME280;58263;48.146;11.440;2023-02-23T13:36:40;95282.63;;;14.78;51.86
70684;BME280;58263;48.146;11.440;2023-02-23T13:44:50;95284.16;;;14.48;52.56
70684;BME280;58263;48.146;11.440;2023-02-23T13:47:37;95278.81;;;14.64;51.99
70684;BME280;58263;48.146;11.440;2023-02-23T13:52:53;95272.91;;;15.08;51.05
70684;BME280;58263;48.146;11.440;2023-02-23T13:58:10;95271.53;;;15.47;49.59
70684;BME280;58263;48.146;11.440;2023-02-23T14:00:39;95271.72;;;15.81;48.65
70684;BME280;58263;48.146;11.440;2023-02-23T14:03:06;95271.72;;;16.92;46.17
70684;BME280;58263;48.146;11.440;2023-02-23T14:05:41;95269.34;;;16.35;46.85
70684;BME280;58263;48.146;11.440;2023-02-23T14:08:16;95265.25;;;15.82;48.24
70684;BME280;58263;48.146;11.440;2023-02-23T14:10:45;95267.50;;;15.34;48.96
70684;BME280;58263;48.146;11.440;2023-02-23T14:15:47;95269.66;;;14.70;50.54
70684;BME280;58263;48.146;11.440;2023-02-23T14:21:07;95271.72;;;14.37;51.95
70684;BME280;58263;48.146;11.440;2023-02-23T14:29:29;95272.06;;;13.82;54.14
70684;BME280;58263;48.146;11.440;2023-02-23T14:32:02;95275.09;;;13.43;54.80
70684;BME280;58263;48.146;11.440;2023-02-23T14:35:04;95272.69;;;13.47;55.29
70684;BME280;58263;48.146;11.440;2023-02-23T14:37:41;95271.75;;;13.31;54.61
70684;BME280;58263;48.146;11.440;2023-02-23T14:40:13;95264.66;;;13.19;55.28
70684;BME280;58263;48.146;11.440;2023-02-23T14:42:40;95264.66;;;13.14;55.55
70684;BME280;58263;48.146;11.440;2023-02-23T14:45:24;95266.66;;;12.97;56.33
70684;BME280;58263;48.146;11.440;2023-02-23T14:47:52;95266.34;;;12.93;56.74
70684;BME280;58263;48.146;11.440;2023-02-23T14:50:30;95269.00;;;12.88;56.74
70684;BME280;58263;48.146;11.440;2023-02-23T14:52:57;95263.75;;;12.71;57.10
70684;BME280;58263;48.146;11.440;2023-02-23T14:55:27;95270.16;;;12.65;57.83
70684;BME280;58263;48.146;11.440;2023-02-23T14:57:52;95274.41;;;12.61;58.08